sensor_id;sensor_type;location;lat;lon;timestamp;P1;durP1;ratioP1;P2;durP2;ratioP2
42338;SDS011;27993;45.392;10.918;2023-10-13T00:02:08;28.35;;;16.40;;
42338;SDS011;27993;45.392;10.918;2023-10-13T00:04:38;31.20;;;16.23;;
42338;SDS011;27993;45.392;10.918;2023-10-13T00:09:40;31.20;;;15.70;;
42338;SDS011;27993;45.392;10.918;2023-10-13T00:12:11;25.48;;;16.17;;
42338;SDS011;27993;45.392;10.918;2023-10-13T00:14:44;25.25;;;15.27;;
42338;SDS011;27993;45.392;10.918;2023-10-13T00:17:15;28.80;;;16.50;;
42338;SDS011;27993;45.392;10.918;2023-10-13T00:19:50;26.00;;;16.42;;
42338;SDS011;27993;45.392;10.918;2023-10-13T00:22:23;29.63;;;16.52;;
42338;SDS011;27993;45.392;10.918;2023-10-13T00:24:54;36.22;;;16.48;;
42338;SDS011;27993;45.392;10.918;2023-10-13T00:27:28;37.50;;;17.35;;
42338;SDS011;27993;45.392;10.918;2023-10-13T00:32:51;38.95;;;17.25;;
42338;SDS011;27993;45.392;10.918;2023-10-13T00:35:27;39.05;;;16.12;;
42338;SDS011;27993;45.392;10.918;2023-10-13T00:40:46;25.35;;;16.15;;
42338;SDS011;27993;45.392;10.918;2023-10-13T00:43:23;30.37;;;17.83;;
42338;SDS011;27993;45.392;10.918;2023-10-13T00:45:55;23.75;;;16.80;;
42338;SDS011;27993;45.392;10.918;2023-10-13T00:48:28;32.45;;;16.92;;
42338;SDS011;27993;45.392;10.918;2023-10-13T00:51:03;30.55;;;16.80;;
42338;SDS011;27993;45.392;10.918;2023-10-13T00:53:38;28.27;;;14.80;;
42338;SDS011;27993;45.392;10.918;2023-10-13T00:56:10;33.40;;;18.35;;
42338;SDS011;27993;45.392;10.918;2023-10-13T00:58:53;27.37;;;15.15;;
42338;SDS011;27993;45.392;10.918;2023-10-13T01:01:26;41.60;;;17.35;;
42338;SDS011;27993;45.392;10.918;2023-10-13T01:04:02;32.08;;;18.27;;
42338;SDS011;27993;45.392;10.918;2023-10-13T01:06:38;30.42;;;17.92;;
42338;SDS011;27993;45.392;10.918;2023-10-13T01:09:09;34.53;;;16.52;;
42338;SDS011;27993;45.392;10.918;2023-10-13T01:11:49;39.83;;;18.10;;
42338;SDS011;27993;45.392;10.918;2023-10-13T01:14:24;28.58;;;17.83;;
42338;SDS011;27993;45.392;10.918;2023-10-13T01:16:58;37.47;;;18.87;;
42338;SDS011;27993;45.392;10.918;2023-10-13T01:19:35;30.27;;;17.40;;
42338;SDS011;27993;45.392;10.918;2023-10-13T01:22:12;27.20;;;17.00;;
42338;SDS011;27993;45.392;10.918;2023-10-13T01:24:43;28.85;;;14.85;;
42338;SDS011;27993;45.392;10.918;2023-10-13T01:27:15;28.25;;;16.35;;
42338;SDS011;27993;45.392;10.918;2023-10-13T01:29:50;29.77;;;16.77;;
42338;SDS011;27993;45.392;10.918;2023-10-13T01:32:25;36.15;;;17.98;;
42338;SDS011;27993;45.392;10.918;2023-10-13T01:34:56;34.78;;;19.60;;
42338;SDS011;27993;45.392;10.918;2023-10-13T01:37:34;35.25;;;19.33;;
42338;SDS011;27993;45.392;10.918;2023-10-13T01:40:05;33.67;;;17.92;;
42338;SDS011;27993;45.392;10.918;2023-10-13T01:42:36;57.13;;;19.90;;
42338;SDS011;27993;45.392;10.918;2023-10-13T01:45:07;40.20;;;20.23;;
42338;SDS011;27993;45.392;10.918;2023-10-13T01:47:37;29.02;;;16.48;;
42338;SDS011;27993;45.392;10.918;2023-10-13T01:50:09;30.80;;;16.27;;
42338;SDS011;27993;45.392;10.918;2023-10-13T01:55:22;29.35;;;16.60;;
42338;SDS011;27993;45.392;10.918;2023-10-13T01:57:52;31.48;;;17.90;;
42338;SDS011;27993;45.392;10.918;2023-10-13T02:00:24;27.98;;;17.98;;
42338;SDS011;27993;45.392;10.918;2023-10-13T02:02:55;43.58;;;19.23;;
42338;SDS011;27993;45.392;10.918;2023-10-13T02:05:30;43.25;;;19.65;;
42338;SDS011;27993;45.392;10.918;2023-10-13T02:08:05;32.25;;;20.42;;
42338;SDS011;27993;45.392;10.918;2023-10-13T02:10:37;46.30;;;22.17;;
42338;SDS011;27993;45.392;10.918;2023-10-13T02:13:13;38.60;;;22.08;;
42338;SDS011;27993;45.392;10.918;2023-10-13T02:15:47;38.55;;;19.45;;
42338;SDS011;27993;45.392;10.918;2023-10-13T02:18:19;36.17;;;19.48;;
42338;SDS011;27993;45.392;10.918;2023-10-13T02:21:04;40.25;;;19.37;;
42338;SDS011;27993;45.392;10.918;2023-10-13T02:23:34;33.38;;;19.30;;
42338;SDS011;27993;45.392;10.918;2023-10-13T02:26:13;54.00;;;20.02;;
42338;SDS011;27993;45.392;10.918;2023-10-13T02:29:00;37.80;;;20.52;;
42338;SDS011;27993;45.392;10.918;2023-10-13T02:31:38;32.22;;;18.95;;
42338;SDS011;27993;45.392;10.918;2023-10-13T02:34:10;35.78;;;19.87;;
42338;SDS011;27993;45.392;10.918;2023-10-13T02:36:43;38.50;;;21.00;;
42338;SDS011;27993;45.392;10.918;2023-10-13T02:39:19;47.55;;;20.10;;
42338;SDS011;27993;45.392;10.918;2023-10-13T02:41:56;37.20;;;18.42;;
42338;SDS011;27993;45.392;10.918;2023-10-13T02:44:28;39.75;;;20.15;;
42338;SDS011;27993;45.392;10.918;2023-10-13T02:47:01;38.45;;;20.62;;
42338;SDS011;27993;45.392;10.918;2023-10-13T02:49:43;42.58;;;21.23;;
42338;SDS011;27993;45.392;10.918;2023-10-13T02:52:16;29.77;;;19.65;;
42338;SDS011;27993;45.392;10.918;2023-10-13T02:54:46;43.87;;;20.15;;
42338;SDS011;27993;45.392;10.918;2023-10-13T02:57:17;27.02;;;18.95;;
42338;SDS011;27993;45.392;10.918;2023-10-13T02:59:47;32.58;;;16.02;;
42338;SDS011;27993;45.392;10.918;2023-10-13T03:02:21;31.05;;;18.70;;
42338;SDS011;27993;45.392;10.918;2023-10-13T03:04:57;33.53;;;19.42;;
42338;SDS011;27993;45.392;10.918;2023-10-13T03:07:29;28.10;;;18.37;;
42338;SDS011;27993;45.392;10.918;2023-10-13T03:10:00;44.13;;;21.45;;
42338;SDS011;27993;45.392;10.918;2023-10-13T03:12:39;37.78;;;17.05;;
42338;SDS011;27993;45.392;10.918;2023-10-13T03:15:11;27.37;;;17.90;;
42338;SDS011;27993;45.392;10.918;2023-10-13T03:17:48;38.80;;;19.40;;
42338;SDS011;27993;45.392;10.918;2023-10-13T03:20:18;32.30;;;18.92;;
42338;SDS011;27993;45.392;10.918;2023-10-13T03:22:54;36.08;;;18.83;;
42338;SDS011;27993;45.392;10.918;2023-10-13T03:25:25;36.03;;;18.02;;
42338;SDS011;27993;45.392;10.918;2023-10-13T03:27:58;34.72;;;18.65;;
42338;SDS011;27993;45.392;10.918;2023-10-13T03:30:29;32.83;;;18.75;;
42338;SDS011;27993;45.392;10.918;2023-10-13T03:33:06;40.50;;;20.02;;
42338;SDS011;27993;45.392;10.918;2023-10-13T03:35:55;44.53;;;20.23;;
42338;SDS011;27993;45.392;10.918;2023-10-13T03:38:35;35.28;;;19.85;;
42338;SDS011;27993;45.392;10.918;2023-10-13T03:41:06;29.10;;;19.87;;
42338;SDS011;27993;45.392;10.918;2023-10-13T03:43:38;29.60;;;18.52;;
42338;SDS011;27993;45.392;10.918;2023-10-13T03:46:22;32.55;;;19.30;;
42338;SDS011;27993;45.392;10.918;2023-10-13T03:48:53;37.30;;;19.27;;
42338;SDS011;27993;45.392;10.918;2023-10-13T03:51:31;33.30;;;20.15;;
42338;SDS011;27993;45.392;10.918;2023-10-13T03:54:02;37.85;;;20.17;;
42338;SDS011;27993;45.392;10.918;2023-10-13T03:56:37;35.33;;;18.83;;
42338;SDS011;27993;45.392;10.918;2023-10-13T03:59:11;37.97;;;17.60;;
42338;SDS011;27993;45.392;10.918;2023-10-13T04:01:45;28.58;;;17.62;;
42338;SDS011;27993;45.392;10.918;2023-10-13T04:04:28;37.28;;;18.05;;
42338;SDS011;27993;45.392;10.918;2023-10-13T04:07:18;38.92;;;18.83;;
42338;SDS011;27993;45.392;10.918;2023-10-13T04:10:07;31.50;;;18.87;;
42338;SDS011;27993;45.392;10.918;2023-10-13T04:13:01;36.92;;;18.35;;
42338;SDS011;27993;45.392;10.918;2023-10-13T04:16:00;32.63;;;18.20;;
42338;SDS011;27993;45.392;10.918;2023-10-13T04:18:49;52.00;;;18.23;;
42338;SDS011;27993;45.392;10.918;2023-10-13T04:21:37;35.03;;;18.42;;
42338;SDS011;27993;45.392;10.918;2023-10-13T04:24:09;35.38;;;19.33;;
42338;SDS011;27993;45.392;10.918;2023-10-13T04:26:59;42.30;;;18.35;;
42338;SDS011;27993;45.392;10.918;2023-10-13T04:29:42;28.40;;;18.67;;
42338;SDS011;27993;45.392;10.918;2023-10-13T04:32:27;29.58;;;17.20;;
42338;SDS011;27993;45.392;10.918;2023-10-13T04:35:08;31.75;;;17.42;;
42338;SDS011;27993;45.392;10.918;2023-10-13T04:37:40;26.67;;;18.45;;
42338;SDS011;27993;45.392;10.918;2023-10-13T04:40:20;28.52;;;18.70;;
42338;SDS011;27993;45.392;10.918;2023-10-13T04:42:54;46.53;;;18.75;;
42338;SDS011;27993;45.392;10.918;2023-10-13T04:45:34;32.10;;;18.65;;
42338;SDS011;27993;45.392;10.918;2023-10-13T04:48:04;34.63;;;20.08;;
42338;SDS011;27993;45.392;10.918;2023-10-13T04:50:58;33.15;;;19.77;;
42338;SDS011;27993;45.392;10.918;2023-10-13T04:53:50;30.17;;;19.58;;
42338;SDS011;27993;45.392;10.918;2023-10-13T04:56:30;46.13;;;20.58;;
42338;SDS011;27993;45.392;10.918;2023-10-13T04:59:19;36.95;;;19.25;;
42338;SDS011;27993;45.392;10.918;2023-10-13T05:02:06;52.17;;;20.95;;
42338;SDS011;27993;45.392;10.918;2023-10-13T05:04:59;41.65;;;20.98;;
42338;SDS011;27993;45.392;10.918;2023-10-13T05:07:36;30.83;;;18.20;;
42338;SDS011;27993;45.392;10.918;2023-10-13T05:10:26;39.45;;;20.48;;
42338;SDS011;27993;45.392;10.918;2023-10-13T05:13:16;35.17;;;18.20;;
42338;SDS011;27993;45.392;10.918;2023-10-13T05:16:05;41.80;;;19.08;;
42338;SDS011;27993;45.392;10.918;2023-10-13T05:18:54;36.70;;;19.00;;
42338;SDS011;27993;45.392;10.918;2023-10-13T05:21:43;43.95;;;20.70;;
42338;SDS011;27993;45.392;10.918;2023-10-13T05:24:33;42.97;;;20.05;;
42338;SDS011;27993;45.392;10.918;2023-10-13T05:27:22;51.20;;;20.10;;
42338;SDS011;27993;45.392;10.918;2023-10-13T05:30:11;48.30;;;22.67;;
42338;SDS011;27993;45.392;10.918;2023-10-13T05:33:00;49.08;;;22.75;;
42338;SDS011;27993;45.392;10.918;2023-10-13T05:35:50;50.15;;;22.23;;
42338;SDS011;27993;45.392;10.918;2023-10-13T05:38:39;52.62;;;26.58;;
42338;SDS011;27993;45.392;10.918;2023-10-13T05:41:28;45.50;;;26.40;;
42338;SDS011;27993;45.392;10.918;2023-10-13T05:44:18;54.30;;;27.87;;
42338;SDS011;27993;45.392;10.918;2023-10-13T05:47:07;53.53;;;26.77;;
42338;SDS011;27993;45.392;10.918;2023-10-13T05:49:56;80.25;;;29.67;;
42338;SDS011;27993;45.392;10.918;2023-10-13T05:52:43;49.60;;;24.90;;
42338;SDS011;27993;45.392;10.918;2023-10-13T05:55:29;51.20;;;22.92;;
42338;SDS011;27993;45.392;10.918;2023-10-13T05:58:19;69.53;;;28.42;;
42338;SDS011;27993;45.392;10.918;2023-10-13T06:01:11;74.72;;;28.20;;
42338;SDS011;27993;45.392;10.918;2023-10-13T06:04:01;62.28;;;28.08;;
42338;SDS011;27993;45.392;10.918;2023-10-13T06:06:50;52.00;;;26.05;;
42338;SDS011;27993;45.392;10.918;2023-10-13T06:09:39;54.35;;;28.62;;
42338;SDS011;27993;45.392;10.918;2023-10-13T06:12:28;63.50;;;29.12;;
42338;SDS011;27993;45.392;10.918;2023-10-13T06:15:17;53.15;;;29.30;;
42338;SDS011;27993;45.392;10.918;2023-10-13T06:18:06;63.47;;;26.77;;
42338;SDS011;27993;45.392;10.918;2023-10-13T06:20:55;66.00;;;30.70;;
42338;SDS011;27993;45.392;10.918;2023-10-13T06:23:44;66.45;;;27.95;;
42338;SDS011;27993;45.392;10.918;2023-10-13T06:26:34;64.50;;;29.67;;
42338;SDS011;27993;45.392;10.918;2023-10-13T06:29:23;57.00;;;28.08;;
42338;SDS011;27993;45.392;10.918;2023-10-13T06:31:55;53.92;;;29.17;;
42338;SDS011;27993;45.392;10.918;2023-10-13T06:34:28;58.50;;;29.60;;
42338;SDS011;27993;45.392;10.918;2023-10-13T06:37:17;60.80;;;30.10;;
42338;SDS011;27993;45.392;10.918;2023-10-13T06:40:02;55.92;;;29.67;;
42338;SDS011;27993;45.392;10.918;2023-10-13T06:45:25;52.92;;;27.23;;
42338;SDS011;27993;45.392;10.918;2023-10-13T06:47:58;62.90;;;30.00;;
42338;SDS011;27993;45.392;10.918;2023-10-13T06:50:28;55.05;;;29.10;;
42338;SDS011;27993;45.392;10.918;2023-10-13T06:52:59;56.17;;;28.98;;
42338;SDS011;27993;45.392;10.918;2023-10-13T06:55:32;61.55;;;32.65;;
42338;SDS011;27993;45.392;10.918;2023-10-13T06:58:06;65.62;;;31.20;;
42338;SDS011;27993;45.392;10.918;2023-10-13T07:00:37;57.90;;;29.83;;
42338;SDS011;27993;45.392;10.918;2023-10-13T07:03:10;59.33;;;30.83;;
42338;SDS011;27993;45.392;10.918;2023-10-13T07:05:47;65.78;;;30.30;;
42338;SDS011;27993;45.392;10.918;2023-10-13T07:08:18;61.30;;;28.80;;
42338;SDS011;27993;45.392;10.918;2023-10-13T07:10:53;65.53;;;33.00;;
42338;SDS011;27993;45.392;10.918;2023-10-13T07:13:43;68.00;;;31.42;;
42338;SDS011;27993;45.392;10.918;2023-10-13T07:16:20;62.35;;;30.17;;
42338;SDS011;27993;45.392;10.918;2023-10-13T07:18:50;51.35;;;28.62;;
42338;SDS011;27993;45.392;10.918;2023-10-13T07:21:23;61.17;;;31.60;;
42338;SDS011;27993;45.392;10.918;2023-10-13T07:24:01;80.43;;;34.40;;
42338;SDS011;27993;45.392;10.918;2023-10-13T07:26:38;71.93;;;35.30;;
42338;SDS011;27993;45.392;10.918;2023-10-13T07:29:27;82.28;;;34.55;;
42338;SDS011;27993;45.392;10.918;2023-10-13T07:31:58;88.95;;;37.70;;
42338;SDS011;27993;45.392;10.918;2023-10-13T07:37:02;86.00;;;34.63;;
42338;SDS011;27993;45.392;10.918;2023-10-13T07:39:37;71.03;;;36.15;;
42338;SDS011;27993;45.392;10.918;2023-10-13T07:42:10;63.50;;;33.75;;
42338;SDS011;27993;45.392;10.918;2023-10-13T07:44:49;66.32;;;34.28;;
42338;SDS011;27993;45.392;10.918;2023-10-13T07:49:54;65.68;;;34.50;;
42338;SDS011;27993;45.392;10.918;2023-10-13T07:52:26;70.18;;;34.55;;
42338;SDS011;27993;45.392;10.918;2023-10-13T07:55:06;57.05;;;31.42;;
42338;SDS011;27993;45.392;10.918;2023-10-13T07:57:49;66.37;;;33.83;;
42338;SDS011;27993;45.392;10.918;2023-10-13T08:00:23;58.92;;;31.40;;
42338;SDS011;27993;45.392;10.918;2023-10-13T08:03:00;81.12;;;37.45;;
42338;SDS011;27993;45.392;10.918;2023-10-13T08:05:52;55.75;;;31.75;;
42338;SDS011;27993;45.392;10.918;2023-10-13T08:08:36;58.45;;;34.28;;
42338;SDS011;27993;45.392;10.918;2023-10-13T08:11:10;65.72;;;35.08;;
42338;SDS011;27993;45.392;10.918;2023-10-13T08:13:55;73.82;;;36.30;;
42338;SDS011;27993;45.392;10.918;2023-10-13T08:16:29;68.30;;;37.08;;
42338;SDS011;27993;45.392;10.918;2023-10-13T08:19:24;72.72;;;37.10;;
42338;SDS011;27993;45.392;10.918;2023-10-13T08:22:19;79.45;;;38.55;;
42338;SDS011;27993;45.392;10.918;2023-10-13T08:24:50;74.45;;;39.20;;
42338;SDS011;27993;45.392;10.918;2023-10-13T08:27:22;63.67;;;37.33;;
42338;SDS011;27993;45.392;10.918;2023-10-13T08:30:05;76.15;;;33.33;;
42338;SDS011;27993;45.392;10.918;2023-10-13T08:32:54;60.97;;;33.33;;
42338;SDS011;27993;45.392;10.918;2023-10-13T08:35:26;84.05;;;34.72;;
42338;SDS011;27993;45.392;10.918;2023-10-13T08:38:04;79.22;;;35.42;;
42338;SDS011;27993;45.392;10.918;2023-10-13T08:40:43;67.22;;;34.38;;
42338;SDS011;27993;45.392;10.918;2023-10-13T08:43:33;68.45;;;36.28;;
42338;SDS011;27993;45.392;10.918;2023-10-13T08:46:13;63.67;;;30.65;;
42338;SDS011;27993;45.392;10.918;2023-10-13T08:48:55;54.10;;;30.08;;
42338;SDS011;27993;45.392;10.918;2023-10-13T08:51:39;43.17;;;27.62;;
42338;SDS011;27993;45.392;10.918;2023-10-13T08:54:14;58.22;;;31.30;;
42338;SDS011;27993;45.392;10.918;2023-10-13T08:57:11;51.25;;;30.52;;
42338;SDS011;27993;45.392;10.918;2023-10-13T09:00:03;55.08;;;32.70;;
42338;SDS011;27993;45.392;10.918;2023-10-13T09:02:52;63.70;;;34.40;;
42338;SDS011;27993;45.392;10.918;2023-10-13T09:05:42;52.35;;;31.92;;
42338;SDS011;27993;45.392;10.918;2023-10-13T09:08:30;59.85;;;34.80;;
42338;SDS011;27993;45.392;10.918;2023-10-13T09:11:27;78.60;;;32.08;;
42338;SDS011;27993;45.392;10.918;2023-10-13T09:14:12;52.00;;;30.13;;
42338;SDS011;27993;45.392;10.918;2023-10-13T09:17:04;64.45;;;31.77;;
42338;SDS011;27993;45.392;10.918;2023-10-13T09:19:48;55.03;;;33.72;;
42338;SDS011;27993;45.392;10.918;2023-10-13T09:22:23;54.00;;;32.10;;
42338;SDS011;27993;45.392;10.918;2023-10-13T09:24:57;78.93;;;35.95;;
42338;SDS011;27993;45.392;10.918;2023-10-13T09:27:30;71.20;;;35.03;;
42338;SDS011;27993;45.392;10.918;2023-10-13T09:30:03;53.35;;;31.20;;
42338;SDS011;27993;45.392;10.918;2023-10-13T09:33:00;61.70;;;33.10;;
42338;SDS011;27993;45.392;10.918;2023-10-13T09:35:31;56.97;;;31.37;;
42338;SDS011;27993;45.392;10.918;2023-10-13T09:38:07;70.18;;;30.33;;
42338;SDS011;27993;45.392;10.918;2023-10-13T09:40:37;55.30;;;30.12;;
42338;SDS011;27993;45.392;10.918;2023-10-13T09:43:08;53.50;;;27.87;;
42338;SDS011;27993;45.392;10.918;2023-10-13T09:45:48;63.10;;;29.45;;
42338;SDS011;27993;45.392;10.918;2023-10-13T09:51:11;62.55;;;30.17;;
42338;SDS011;27993;45.392;10.918;2023-10-13T09:53:45;46.53;;;28.75;;
42338;SDS011;27993;45.392;10.918;2023-10-13T09:56:29;59.63;;;31.00;;
42338;SDS011;27993;45.392;10.918;2023-10-13T09:59:14;62.47;;;26.92;;
42338;SDS011;27993;45.392;10.918;2023-10-13T10:02:10;45.08;;;27.62;;
42338;SDS011;27993;45.392;10.918;2023-10-13T10:04:51;47.72;;;24.87;;
42338;SDS011;27993;45.392;10.918;2023-10-13T10:07:53;53.63;;;29.73;;
42338;SDS011;27993;45.392;10.918;2023-10-13T10:10:47;46.53;;;26.02;;
42338;SDS011;27993;45.392;10.918;2023-10-13T10:13:39;43.17;;;25.20;;
42338;SDS011;27993;45.392;10.918;2023-10-13T10:16:30;50.72;;;23.75;;
42338;SDS011;27993;45.392;10.918;2023-10-13T10:19:08;32.95;;;19.58;;
42338;SDS011;27993;45.392;10.918;2023-10-13T10:21:38;31.85;;;18.42;;
42338;SDS011;27993;45.392;10.918;2023-10-13T10:24:20;24.00;;;16.87;;
42338;SDS011;27993;45.392;10.918;2023-10-13T10:27:00;35.42;;;19.55;;
42338;SDS011;27993;45.392;10.918;2023-10-13T10:29:34;24.80;;;16.77;;
42338;SDS011;27993;45.392;10.918;2023-10-13T10:32:12;26.40;;;16.67;;
42338;SDS011;27993;45.392;10.918;2023-10-13T10:34:45;33.83;;;16.85;;
42338;SDS011;27993;45.392;10.918;2023-10-13T10:37:16;38.50;;;18.12;;
42338;SDS011;27993;45.392;10.918;2023-10-13T10:39:48;32.63;;;19.00;;
42338;SDS011;27993;45.392;10.918;2023-10-13T10:42:22;30.37;;;16.83;;
42338;SDS011;27993;45.392;10.918;2023-10-13T10:44:53;31.25;;;21.42;;
42338;SDS011;27993;45.392;10.918;2023-10-13T10:47:35;47.40;;;20.17;;
42338;SDS011;27993;45.392;10.918;2023-10-13T10:50:08;32.63;;;17.83;;
42338;SDS011;27993;45.392;10.918;2023-10-13T10:52:56;30.92;;;17.37;;
42338;SDS011;27993;45.392;10.918;2023-10-13T10:55:27;27.83;;;14.35;;
42338;SDS011;27993;45.392;10.918;2023-10-13T10:57:58;36.67;;;20.50;;
42338;SDS011;27993;45.392;10.918;2023-10-13T11:00:31;27.77;;;17.40;;
42338;SDS011;27993;45.392;10.918;2023-10-13T11:03:16;25.95;;;14.32;;
42338;SDS011;27993;45.392;10.918;2023-10-13T11:05:47;19.37;;;14.77;;
42338;SDS011;27993;45.392;10.918;2023-10-13T11:08:21;26.02;;;15.88;;
42338;SDS011;27993;45.392;10.918;2023-10-13T11:11:01;28.08;;;17.73;;
42338;SDS011;27993;45.392;10.918;2023-10-13T11:13:43;37.70;;;16.75;;
42338;SDS011;27993;45.392;10.918;2023-10-13T11:16:33;29.10;;;14.82;;
42338;SDS011;27993;45.392;10.918;2023-10-13T11:19:04;26.70;;;14.65;;
42338;SDS011;27993;45.392;10.918;2023-10-13T11:21:35;23.73;;;14.10;;
42338;SDS011;27993;45.392;10.918;2023-10-13T11:24:07;26.85;;;14.50;;
42338;SDS011;27993;45.392;10.918;2023-10-13T11:26:41;24.80;;;13.80;;
42338;SDS011;27993;45.392;10.918;2023-10-13T11:29:19;21.48;;;13.52;;
42338;SDS011;27993;45.392;10.918;2023-10-13T11:32:00;26.52;;;15.18;;
42338;SDS011;27993;45.392;10.918;2023-10-13T11:34:33;23.95;;;13.60;;
42338;SDS011;27993;45.392;10.918;2023-10-13T11:37:09;27.33;;;13.95;;
42338;SDS011;27993;45.392;10.918;2023-10-13T11:39:59;28.70;;;13.77;;
42338;SDS011;27993;45.392;10.918;2023-10-13T11:42:29;23.90;;;15.80;;
42338;SDS011;27993;45.392;10.918;2023-10-13T11:45:00;26.52;;;15.35;;
42338;SDS011;27993;45.392;10.918;2023-10-13T11:47:54;27.25;;;12.52;;
42338;SDS011;27993;45.392;10.918;2023-10-13T11:50:30;26.45;;;13.10;;
42338;SDS011;27993;45.392;10.918;2023-10-13T11:53:05;24.20;;;12.40;;
42338;SDS011;27993;45.392;10.918;2023-10-13T11:55:37;18.12;;;11.80;;
42338;SDS011;27993;45.392;10.918;2023-10-13T11:58:08;23.27;;;11.85;;
42338;SDS011;27993;45.392;10.918;2023-10-13T12:00:39;18.12;;;12.73;;
42338;SDS011;27993;45.392;10.918;2023-10-13T12:03:23;17.83;;;11.77;;
42338;SDS011;27993;45.392;10.918;2023-10-13T12:06:12;20.33;;;12.82;;
42338;SDS011;27993;45.392;10.918;2023-10-13T12:09:06;28.75;;;16.42;;
42338;SDS011;27993;45.392;10.918;2023-10-13T12:11:50;21.73;;;12.02;;
42338;SDS011;27993;45.392;10.918;2023-10-13T12:14:21;19.40;;;12.55;;
42338;SDS011;27993;45.392;10.918;2023-10-13T12:16:57;19.50;;;11.68;;
42338;SDS011;27993;45.392;10.918;2023-10-13T12:19:34;25.27;;;11.38;;
42338;SDS011;27993;45.392;10.918;2023-10-13T12:22:05;32.08;;;13.68;;
42338;SDS011;27993;45.392;10.918;2023-10-13T12:24:39;25.67;;;11.60;;
42338;SDS011;27993;45.392;10.918;2023-10-13T12:27:09;20.33;;;9.90;;
42338;SDS011;27993;45.392;10.918;2023-10-13T12:29:50;22.52;;;11.88;;
42338;SDS011;27993;45.392;10.918;2023-10-13T12:32:26;16.02;;;9.45;;
42338;SDS011;27993;45.392;10.918;2023-10-13T12:35:00;20.55;;;11.27;;
42338;SDS011;27993;45.392;10.918;2023-10-13T12:37:34;16.92;;;10.50;;
42338;SDS011;27993;45.392;10.918;2023-10-13T12:40:18;22.10;;;13.00;;
42338;SDS011;27993;45.392;10.918;2023-10-13T12:43:07;18.67;;;12.23;;
42338;SDS011;27993;45.392;10.918;2023-10-13T12:45:57;15.88;;;9.95;;
42338;SDS011;27993;45.392;10.918;2023-10-13T12:48:46;21.50;;;11.02;;
42338;SDS011;27993;45.392;10.918;2023-10-13T12:51:28;21.35;;;8.02;;
42338;SDS011;27993;45.392;10.918;2023-10-13T12:54:01;18.52;;;8.70;;
42338;SDS011;27993;45.392;10.918;2023-10-13T12:56:36;13.15;;;7.68;;
42338;SDS011;27993;45.392;10.918;2023-10-13T12:59:11;14.32;;;7.93;;
42338;SDS011;27993;45.392;10.918;2023-10-13T13:01:45;12.13;;;9.02;;
42338;SDS011;27993;45.392;10.918;2023-10-13T13:04:15;16.35;;;9.18;;
42338;SDS011;27993;45.392;10.918;2023-10-13T13:06:52;19.60;;;9.63;;
42338;SDS011;27993;45.392;10.918;2023-10-13T13:09:23;13.68;;;7.70;;
42338;SDS011;27993;45.392;10.918;2023-10-13T13:11:57;21.95;;;10.82;;
42338;SDS011;27993;45.392;10.918;2023-10-13T13:14:27;19.52;;;10.25;;
42338;SDS011;27993;45.392;10.918;2023-10-13T13:17:01;18.52;;;8.82;;
42338;SDS011;27993;45.392;10.918;2023-10-13T13:19:35;20.42;;;10.75;;
42338;SDS011;27993;45.392;10.918;2023-10-13T13:22:09;19.27;;;10.02;;
42338;SDS011;27993;45.392;10.918;2023-10-13T13:24:42;17.35;;;10.55;;
42338;SDS011;27993;45.392;10.918;2023-10-13T13:27:14;27.10;;;9.85;;
42338;SDS011;27993;45.392;10.918;2023-10-13T13:29:47;17.98;;;10.05;;
42338;SDS011;27993;45.392;10.918;2023-10-13T13:32:18;17.40;;;11.32;;
42338;SDS011;27993;45.392;10.918;2023-10-13T13:34:54;19.45;;;8.35;;
42338;SDS011;27993;45.392;10.918;2023-10-13T13:37:28;15.30;;;9.75;;
42338;SDS011;27993;45.392;10.918;2023-10-13T13:39:59;13.85;;;9.93;;
42338;SDS011;27993;45.392;10.918;2023-10-13T13:42:46;13.80;;;8.98;;
42338;SDS011;27993;45.392;10.918;2023-10-13T13:45:17;22.15;;;11.57;;
42338;SDS011;27993;45.392;10.918;2023-10-13T13:47:51;23.08;;;11.18;;
42338;SDS011;27993;45.392;10.918;2023-10-13T13:50:27;15.98;;;9.48;;
42338;SDS011;27993;45.392;10.918;2023-10-13T13:53:02;17.25;;;10.02;;
42338;SDS011;27993;45.392;10.918;2023-10-13T13:55:39;15.38;;;8.80;;
42338;SDS011;27993;45.392;10.918;2023-10-13T13:58:10;20.10;;;9.20;;
42338;SDS011;27993;45.392;10.918;2023-10-13T14:00:42;9.00;;;7.15;;
42338;SDS011;27993;45.392;10.918;2023-10-13T14:03:18;13.68;;;8.85;;
42338;SDS011;27993;45.392;10.918;2023-10-13T14:06:01;18.95;;;10.48;;
42338;SDS011;27993;45.392;10.918;2023-10-13T14:08:33;12.40;;;7.97;;
42338;SDS011;27993;45.392;10.918;2023-10-13T14:11:04;19.52;;;7.65;;
42338;SDS011;27993;45.392;10.918;2023-10-13T14:13:51;14.38;;;7.85;;
42338;SDS011;27993;45.392;10.918;2023-10-13T14:16:28;19.20;;;9.23;;
42338;SDS011;27993;45.392;10.918;2023-10-13T14:18:59;17.90;;;8.20;;
42338;SDS011;27993;45.392;10.918;2023-10-13T14:21:37;24.08;;;9.20;;
42338;SDS011;27993;45.392;10.918;2023-10-13T14:24:08;17.60;;;8.82;;
42338;SDS011;27993;45.392;10.918;2023-10-13T14:26:44;15.35;;;9.10;;
42338;SDS011;27993;45.392;10.918;2023-10-13T14:29:15;14.02;;;8.13;;
42338;SDS011;27993;45.392;10.918;2023-10-13T14:31:46;9.45;;;6.95;;
42338;SDS011;27993;45.392;10.918;2023-10-13T14:34:19;18.98;;;8.88;;
42338;SDS011;27993;45.392;10.918;2023-10-13T14:36:52;22.80;;;7.75;;
42338;SDS011;27993;45.392;10.918;2023-10-13T14:39:24;10.95;;;7.25;;
42338;SDS011;27993;45.392;10.918;2023-10-13T14:42:01;14.75;;;7.80;;
42338;SDS011;27993;45.392;10.918;2023-10-13T14:44:33;12.77;;;6.47;;
42338;SDS011;27993;45.392;10.918;2023-10-13T14:47:04;13.00;;;6.62;;
42338;SDS011;27993;45.392;10.918;2023-10-13T14:49:35;19.83;;;8.27;;
42338;SDS011;27993;45.392;10.918;2023-10-13T14:52:06;18.62;;;8.80;;
42338;SDS011;27993;45.392;10.918;2023-10-13T14:54:37;12.13;;;8.30;;
42338;SDS011;27993;45.392;10.918;2023-10-13T14:57:07;8.60;;;6.85;;
42338;SDS011;27993;45.392;10.918;2023-10-13T14:59:38;19.77;;;7.62;;
42338;SDS011;27993;45.392;10.918;2023-10-13T15:02:09;13.18;;;7.93;;
42338;SDS011;27993;45.392;10.918;2023-10-13T15:04:39;10.45;;;6.68;;
42338;SDS011;27993;45.392;10.918;2023-10-13T15:07:10;14.07;;;7.43;;
42338;SDS011;27993;45.392;10.918;2023-10-13T15:09:40;18.95;;;7.07;;
42338;SDS011;27993;45.392;10.918;2023-10-13T15:12:12;10.75;;;7.40;;
42338;SDS011;27993;45.392;10.918;2023-10-13T15:14:43;11.60;;;6.80;;
42338;SDS011;27993;45.392;10.918;2023-10-13T15:17:14;14.55;;;6.97;;
42338;SDS011;27993;45.392;10.918;2023-10-13T15:19:46;11.38;;;6.97;;
42338;SDS011;27993;45.392;10.918;2023-10-13T15:22:16;8.63;;;6.30;;
42338;SDS011;27993;45.392;10.918;2023-10-13T15:24:51;13.32;;;6.18;;
42338;SDS011;27993;45.392;10.918;2023-10-13T15:27:38;16.17;;;6.95;;
42338;SDS011;27993;45.392;10.918;2023-10-13T15:30:12;10.27;;;6.47;;
42338;SDS011;27993;45.392;10.918;2023-10-13T15:32:54;6.93;;;4.90;;
42338;SDS011;27993;45.392;10.918;2023-10-13T15:35:28;14.50;;;5.90;;